Time;durP1;ratioP1;P1;durP2;ratioP2;P2;SDS_P1;SDS_P2;PMS_P1;PMS_P2;Temp;Humidity;BMP_temperature;BMP_pressure;BME280_temperature;BME280_humidity;BME280_pressure;Samples;Min_cycle;Max_cycle;Signal;HPM_P1;HPM_P2
2022/11/05 00:09:31;;;;;;;30.05;16.55;;;13.40;99.90;;;;;;4764794;30;20055;-78
2022/11/05 00:20:07;;;;;;;;;;;13.30;99.90;;;;;;4628360;30;20051;-78
2022/11/05 00:30:39;;;;;;;19.70;9.80;;;13.30;99.90;;;;;;4717666;30;21435;-77
2022/11/05 00:33:53;;;;;;;20.08;10.40;;;13.30;99.90;;;;;;4713248;30;20182;-79
2022/11/05 00:37:16;;;;;;;16.50;9.45;;;13.30;99.90;;;;;;4750757;30;20055;-79
2022/11/05 00:39:43;;;;;;;17.73;9.88;;;13.30;99.90;;;;;;4770036;30;20115;-81
2022/11/05 00:53:24;;;;;;;18.92;11.90;;;13.20;99.90;;;;;;4715669;30;20033;-80
2022/11/05 01:00:53;;;;;;;20.70;10.40;;;13.20;99.90;;;;;;4714868;30;20452;-80
2022/11/05 01:03:43;;;;;;;16.23;9.57;;;13.20;99.90;;;;;;4711411;30;20502;-77
2022/11/05 01:11:31;;;;;;;16.25;9.38;;;13.20;99.90;;;;;;4689025;30;20413;-81
2022/11/05 01:15:15;;;;;;;15.65;10.50;;;13.10;99.90;;;;;;4698974;30;20044;-78
2022/11/05 01:26:44;;;;;;;20.75;11.48;;;13.10;99.90;;;;;;4595576;31;20572;-79
2022/11/05 01:33:04;;;;;;;16.75;9.88;;;13.10;99.90;;;;;;4563021;31;20076;-78
2022/11/05 01:51:14;;;;;;;17.70;10.23;;;13.10;99.90;;;;;;4614326;30;20185;-77
2022/11/05 01:54:00;;;;;;;17.77;10.05;;;13.10;99.90;;;;;;4627779;30;20055;-80
2022/11/05 01:56:31;;;;;;;16.95;9.35;;;13.10;99.90;;;;;;4630313;30;20049;-77
2022/11/05 02:03:37;;;;;;;17.50;10.43;;;13.10;99.90;;;;;;4646662;30;20403;-77
2022/11/05 02:06:44;;;;;;;14.70;8.82;;;13.00;99.90;;;;;;4593499;31;20060;-76
2022/11/05 02:09:55;;;;;;;;;;;;;;;;;;;;;
2022/11/05 02:21:35;;;;;;;15.68;9.77;;;13.10;99.90;;;;;;4933741;29;20072;-77
2022/11/05 02:28:26;;;;;;;16.42;9.20;;;13.10;99.90;;;;;;4860533;29;20140;-76
2022/11/05 02:31:27;;;;;;;16.23;9.73;;;13.10;99.90;;;;;;4845484;29;20045;-78
2022/11/05 02:34:18;;;;;;;23.60;13.43;;;13.00;99.90;;;;;;4860882;29;20037;-77
2022/11/05 02:37:04;;;;;;;18.65;12.98;;;13.00;99.90;;;;;;4864024;29;20061;-77
2022/11/05 02:39:51;;;;;;;18.48;11.45;;;13.00;99.90;;;;;;4860719;29;20516;-78
2022/11/05 02:42:37;;;;;;;16.02;9.77;;;13.00;99.90;;;;;;4861299;29;20034;-80
2022/11/05 02:45:22;;;;;;;15.43;10.15;;;13.10;99.90;;;;;;4861058;29;20511;-78
2022/11/05 02:47:55;;;;;;;16.52;8.65;;;13.10;99.90;;;;;;4860815;29;20049;-76
2022/11/05 02:50:47;;;;;;;15.95;8.95;;;13.00;99.90;;;;;;4861557;29;20048;-79
2022/11/05 02:53:26;;;;;;;14.88;9.07;;;13.00;99.90;;;;;;4865394;29;20040;-78
2022/11/05 02:56:00;;;;;;;15.90;9.60;;;13.00;99.90;;;;;;4868098;29;20030;-76
2022/11/05 02:58:27;;;;;;;20.23;9.25;;;13.00;99.90;;;;;;4849614;29;20499;-79
2022/11/05 03:00:55;;;;;;;15.70;9.73;;;13.00;99.90;;;;;;4868496;29;20085;-80
2022/11/05 03:03:29;;;;;;;15.20;10.43;;;13.00;99.90;;;;;;4900412;29;20039;-78
2022/11/05 03:06:20;;;;;;;18.48;10.48;;;13.10;99.90;;;;;;4932212;29;20060;-77
2022/11/05 03:09:14;;;;;;;17.42;10.55;;;13.00;99.90;;;;;;4924484;29;20123;-78
2022/11/05 03:12:09;;;;;;;17.52;9.57;;;13.10;99.90;;;;;;4925014;29;20539;-78
2022/11/05 03:14:52;;;;;;;15.80;9.80;;;13.00;99.90;;;;;;4919147;29;20035;-77
2022/11/05 03:17:59;;;;;;;18.42;10.70;;;13.00;99.90;;;;;;4913811;29;20051;-75
2022/11/05 03:20:58;;;;;;;18.30;10.48;;;13.00;99.90;;;;;;4916103;29;20048;-75
2022/11/05 03:36:17;;;;;;;20.83;11.93;;;13.10;99.90;;;;;;4857442;29;20078;-77
2022/11/05 03:38:52;;;;;;;20.50;12.52;;;13.10;99.90;;;;;;4788580;30;20043;-76
2022/11/05 03:41:34;;;;;;;21.42;12.00;;;13.10;99.90;;;;;;4788612;30;20110;-78
2022/11/05 03:44:14;;;;;;;19.60;13.32;;;13.20;99.90;;;;;;4788660;29;20028;-75
2022/11/05 03:46:59;;;;;;;22.27;12.60;;;13.20;99.90;;;;;;4795472;29;20108;-79
2022/11/05 04:32:41;;;;;;;23.80;16.05;;;13.40;99.90;;;;;;4930556;29;20056;-78
2022/11/05 04:46:15;;;;;;;23.40;15.13;;;13.60;99.90;;;;;;4784848;29;20104;-76
2022/11/05 04:54:16;;;;;;;26.83;16.88;;;13.70;99.90;;;;;;4748082;30;20137;-79
2022/11/05 05:08:46;;;;;;;;;;;;;;;;;;;;;
2022/11/05 05:15:39;;;;;;;28.60;19.13;;;13.50;99.90;;;;;;4687792;30;20100;-75
2022/11/05 05:27:35;;;;;;;;;;;;;;;;;;;;;
2022/11/05 05:47:14;;;;;;;24.83;16.63;;;13.00;99.90;;;;;;4831642;29;20113;-76
2022/11/05 05:53:34;;;;;;;21.95;16.98;;;12.70;99.90;;;;;;4835130;29;20042;-79
2022/11/05 05:56:35;;;;;;;29.00;18.23;;;12.60;99.90;;;;;;4838612;29;20524;-78
2022/11/05 05:59:06;;;;;;;24.92;16.92;;;12.50;99.90;;;;;;4823603;29;20516;-79
2022/11/05 06:01:36;;;;;;;26.75;16.27;;;12.50;99.90;;;;;;4838896;29;20037;-80
2022/11/05 06:04:15;;;;;;;29.65;18.17;;;12.40;99.90;;;;;;4838468;29;20113;-80
2022/11/05 06:15:27;;;;;;;28.27;15.95;;;12.20;99.90;;;;;;4764510;30;20046;-78
2022/11/05 06:18:39;;;;;;;24.20;15.75;;;12.20;99.90;;;;;;4748162;29;20044;-80
2022/11/05 06:25:56;;;;;;;19.92;12.98;;;12.10;99.90;;;;;;4678985;30;20045;-79
2022/11/05 06:37:04;;;;;;;23.75;14.77;;;12.00;99.90;;;;;;4692998;30;20052;-79
2022/11/05 06:46:55;;;;;;;20.70;12.38;;;12.00;99.90;;;;;;4699219;30;20069;-80
2022/11/05 06:49:24;;;;;;;19.10;11.48;;;11.90;99.90;;;;;;4696462;30;20041;-81
2022/11/05 06:51:51;;;;;;;20.65;13.02;;;11.90;99.90;;;;;;4753813;30;20051;-81
2022/11/05 06:54:43;;;;;;;22.65;11.63;;;11.90;99.90;;;;;;4734365;30;20410;-81
2022/11/05 06:57:17;;;;;;;15.95;10.43;;;11.90;99.90;;;;;;4754086;30;20484;-81
2022/11/05 06:59:43;;;;;;;17.75;10.35;;;11.80;99.90;;;;;;4785125;29;20110;-81
2022/11/05 07:02:12;;;;;;;16.60;10.32;;;11.90;99.90;;;;;;4783741;30;20498;-80
2022/11/05 07:04:58;;;;;;;17.85;11.23;;;11.80;99.90;;;;;;4795632;29;20039;-81
2022/11/05 07:07:34;;;;;;;20.45;12.73;;;11.90;99.90;;;;;;4822525;29;20042;-80
2022/11/05 07:10:00;;;;;;;15.82;9.80;;;11.80;99.90;;;;;;4828402;29;20038;-83
2022/11/05 07:12:46;;;;;;;14.88;8.77;;;11.70;99.90;;;;;;4813549;29;20043;-82
2022/11/05 07:15:12;;;;;;;13.98;7.28;;;11.60;99.90;;;;;;4860477;29;20102;-79
2022/11/05 07:17:38;;;;;;;15.35;8.05;;;11.70;99.90;;;;;;4868799;29;20047;-81
2022/11/05 07:20:06;;;;;;;10.45;6.40;;;11.60;99.90;;;;;;4878055;29;20426;-82
2022/11/05 07:22:33;;;;;;;11.57;6.15;;;11.60;99.90;;;;;;4909500;29;20044;-79
2022/11/05 07:24:58;;;;;;;9.23;5.28;;;11.50;99.90;;;;;;4923018;29;20080;-78
2022/11/05 07:27:24;;;;;;;12.48;6.07;;;11.40;99.90;;;;;;4923051;29;20084;-78
2022/11/05 07:29:50;;;;;;;13.73;6.25;;;11.40;99.90;;;;;;4919535;29;20082;-80
2022/11/05 07:32:16;;;;;;;10.75;6.28;;;11.20;99.90;;;;;;4922589;29;20430;-82
2022/11/05 07:34:42;;;;;;;13.35;5.82;;;11.20;99.90;;;;;;4916248;29;20148;-82
2022/11/05 07:37:07;;;;;;;9.23;5.30;;;11.20;99.90;;;;;;4924514;29;20036;-80
2022/11/05 07:39:33;;;;;;;13.18;7.53;;;11.10;99.90;;;;;;4916223;29;20115;-82
2022/11/05 07:41:59;;;;;;;11.13;6.45;;;11.10;99.90;;;;;;4917308;29;20056;-80
2022/11/05 07:44:31;;;;;;;11.83;6.50;;;11.10;99.90;;;;;;4934022;29;20095;-82
2022/11/05 07:46:57;;;;;;;12.13;6.72;;;11.20;99.90;;;;;;4962009;29;20078;-80
2022/11/05 07:49:23;;;;;;;10.40;6.60;;;11.20;99.90;;;;;;4941698;29;20114;-82
2022/11/05 07:51:48;;;;;;;13.73;7.70;;;11.20;99.90;;;;;;4962224;29;20043;-83
2022/11/05 07:54:14;;;;;;;15.55;8.40;;;11.10;99.90;;;;;;4961656;29;20501;-80
2022/11/05 07:56:40;;;;;;;14.98;8.98;;;11.10;99.90;;;;;;4923940;29;20031;-81
2022/11/05 07:59:07;;;;;;;13.77;8.40;;;11.00;99.90;;;;;;4964654;29;20063;-80
2022/11/05 08:01:33;;;;;;;15.82;8.85;;;11.00;99.90;;;;;;4954912;29;20046;-80
2022/11/05 08:03:59;;;;;;;15.98;9.40;;;11.00;99.90;;;;;;4955158;29;20486;-80
2022/11/05 08:06:25;;;;;;;15.35;10.20;;;10.90;99.90;;;;;;4942004;29;20402;-79
2022/11/05 08:08:52;;;;;;;16.60;9.32;;;10.90;99.90;;;;;;4955374;29;20443;-79
2022/11/05 08:11:18;;;;;;;17.40;9.48;;;10.90;99.90;;;;;;4960838;29;20035;-81
2022/11/05 08:13:44;;;;;;;17.65;11.13;;;10.90;99.90;;;;;;4959935;29;20127;-81
2022/11/05 08:16:10;;;;;;;16.98;10.77;;;10.90;99.90;;;;;;4959776;28;20637;-80
2022/11/05 08:18:35;;;;;;;18.42;11.43;;;10.90;99.90;;;;;;4960910;29;20039;-78
2022/11/05 08:21:03;;;;;;;17.67;10.68;;;10.90;99.90;;;;;;4956414;29;20035;-78
2022/11/05 08:23:32;;;;;;;16.38;10.40;;;10.90;99.90;;;;;;4940025;29;20039;-81
2022/11/05 08:26:00;;;;;;;18.15;10.82;;;10.80;99.90;;;;;;4954544;29;20043;-79
2022/11/05 08:28:26;;;;;;;17.35;10.25;;;10.80;99.90;;;;;;4954818;29;20039;-79
2022/11/05 08:30:55;;;;;;;17.85;10.98;;;10.80;99.90;;;;;;4957380;29;20082;-81
2022/11/05 08:33:22;;;;;;;17.40;10.18;;;10.60;99.90;;;;;;4938025;29;20027;-79
2022/11/05 08:35:49;;;;;;;55.28;26.50;;;10.70;99.90;;;;;;4941988;29;20035;-81
2022/11/05 08:38:17;;;;;;;23.38;13.85;;;10.60;99.90;;;;;;4941636;29;20034;-80
2022/11/05 08:40:44;;;;;;;20.13;12.77;;;10.70;99.90;;;;;;4961573;29;20048;-80
2022/11/05 08:43:12;;;;;;;16.63;10.35;;;10.70;99.90;;;;;;4949736;29;20385;-80
2022/11/05 08:45:38;;;;;;;18.67;11.40;;;10.70;99.90;;;;;;4953604;29;20088;-80
2022/11/05 08:48:11;;;;;;;16.38;10.32;;;10.70;99.90;;;;;;4935407;29;20086;-81
2022/11/05 08:51:48;;;;;;;18.90;11.05;;;10.70;99.90;;;;;;4965494;29;20115;-81
2022/11/05 08:54:36;;;;;;;18.52;11.35;;;10.60;99.90;;;;;;4868067;29;20045;-80
2022/11/05 08:57:33;;;;;;;19.65;11.20;;;10.60;99.90;;;;;;4871505;29;20112;-82
2022/11/05 09:00:38;;;;;;;17.48;11.32;;;10.60;99.90;;;;;;4882699;29;20033;-82
2022/11/05 09:02:59;;;;;;;16.67;10.18;;;10.60;99.90;;;;;;4880514;29;20047;-79
2022/11/05 09:05:26;;;;;;;14.75;9.65;;;10.50;99.90;;;;;;4885544;29;20039;-80
2022/11/05 09:07:53;;;;;;;15.40;9.77;;;10.50;99.90;;;;;;4883729;29;20078;-77
2022/11/05 09:10:19;;;;;;;20.10;11.10;;;10.40;99.90;;;;;;4881227;29;20551;-80
2022/11/05 09:12:45;;;;;;;18.15;11.23;;;10.50;99.90;;;;;;4891161;29;20124;-79
2022/11/05 09:15:10;;;;;;;18.30;11.57;;;10.50;99.90;;;;;;4873173;29;20143;-79
2022/11/05 09:17:37;;;;;;;16.90;9.82;;;10.50;99.90;;;;;;4873250;29;20099;-77
2022/11/05 09:20:04;;;;;;;14.30;9.35;;;10.50;99.90;;;;;;4872230;29;20055;-78
2022/11/05 09:22:30;;;;;;;15.18;8.93;;;10.50;99.90;;;;;;4872140;29;20041;-78
2022/11/05 09:24:55;;;;;;;17.10;9.68;;;10.40;99.90;;;;;;4874846;29;20060;-79
2022/11/05 09:27:21;;;;;;;15.50;9.35;;;10.40;99.90;;;;;;4875550;29;20656;-79
2022/11/05 09:29:51;;;;;;;18.30;10.23;;;10.40;99.90;;;;;;4876964;29;20029;-78
2022/11/05 09:33:06;;;;;;;14.20;8.65;;;10.50;99.90;;;;;;4863286;29;20040;-80
2022/11/05 09:35:41;;;;;;;13.13;8.88;;;10.40;99.90;;;;;;4875312;29;20229;-77
2022/11/05 09:38:14;;;;;;;16.92;10.50;;;10.40;99.90;;;;;;4944621;29;20031;-78
2022/11/05 09:40:53;;;;;;;13.75;7.70;;;10.40;99.90;;;;;;4933035;29;20143;-79
2022/11/05 09:43:23;;;;;;;15.10;8.80;;;10.30;99.90;;;;;;4949859;29;20393;-79
2022/11/05 09:50:51;;;;;;;11.52;7.22;;;10.30;99.90;;;;;;4804729;29;20058;-81
2022/11/05 09:57:52;;;;;;;16.17;9.70;;;10.40;99.90;;;;;;4836592;29;20045;-78
2022/11/05 10:00:41;;;;;;;12.18;7.80;;;10.50;99.90;;;;;;4834594;29;20045;-78
2022/11/05 10:03:43;;;;;;;10.18;6.55;;;10.40;99.90;;;;;;4834880;29;20045;-79
2022/11/05 10:06:51;;;;;;;9.77;6.30;;;10.40;99.90;;;;;;4800396;29;20058;-76
2022/11/05 10:10:40;;;;;;;15.43;8.20;;;10.30;99.90;;;;;;4764867;30;20167;-78
2022/11/05 10:13:47;;;;;;;15.13;8.82;;;10.20;99.90;;;;;;4761561;30;20047;-78
2022/11/05 10:16:39;;;;;;;15.30;9.23;;;10.20;99.90;;;;;;4731373;30;20549;-80
2022/11/05 10:19:30;;;;;;;15.73;8.52;;;10.20;99.90;;;;;;4735715;30;20867;-80
2022/11/05 10:22:15;;;;;;;11.70;7.13;;;10.20;99.90;;;;;;4737752;30;20079;-80
2022/11/05 10:24:47;;;;;;;10.45;6.22;;;10.20;99.90;;;;;;4739019;30;20052;-80
2022/11/05 10:27:55;;;;;;;10.88;5.95;;;10.30;99.90;;;;;;4740747;30;20052;-79
2022/11/05 10:33:56;;;;;;;10.88;6.15;;;10.30;99.90;;;;;;4781065;29;20048;-78
2022/11/05 10:36:32;;;;;;;;;;;10.30;99.90;;;;;;4786820;29;20040;-77
2022/11/05 10:39:05;;;;;;;8.90;5.70;;;10.30;99.90;;;;;;4783382;29;19923;-81
2022/11/05 10:42:08;;;;;;;10.13;6.18;;;10.20;99.90;;;;;;4802057;29;20062;-80
2022/11/05 10:44:51;;;;;;;8.98;5.78;;;10.30;99.90;;;;;;4844322;29;20045;-81
2022/11/05 10:47:43;;;;;;;10.93;6.53;;;10.20;99.90;;;;;;4878752;29;20053;-80
2022/11/05 10:50:14;;;;;;;8.63;5.77;;;10.20;99.90;;;;;;4878112;29;20544;-80
2022/11/05 10:52:57;;;;;;;10.38;6.18;;;10.20;99.90;;;;;;4912293;29;20071;-79
2022/11/05 10:55:43;;;;;;;11.60;6.38;;;10.20;99.90;;;;;;4937545;29;20474;-78
2022/11/05 10:58:14;;;;;;;14.90;6.25;;;10.10;99.90;;;;;;4937458;29;20042;-80
2022/11/05 11:00:43;;;;;;;13.63;6.75;;;10.10;99.90;;;;;;4927742;29;20109;-80
2022/11/05 11:03:47;;;;;;;14.00;7.18;;;10.10;99.90;;;;;;4933757;29;20040;-79
2022/11/05 11:06:23;;;;;;;6.85;4.55;;;10.30;99.90;;;;;;4937355;29;20122;-79
2022/11/05 11:08:51;;;;;;;7.47;4.43;;;10.20;99.90;;;;;;4940500;29;20107;-79
2022/11/05 11:11:34;;;;;;;8.10;4.65;;;10.20;99.90;;;;;;4937046;29;20024;-80
2022/11/05 11:14:12;;;;;;;10.40;6.30;;;10.30;99.90;;;;;;4936174;29;20050;-80
2022/11/05 11:16:42;;;;;;;10.13;5.82;;;10.20;99.90;;;;;;4919961;29;20103;-81
2022/11/05 11:19:30;;;;;;;9.07;5.88;;;10.30;99.90;;;;;;4937037;29;20364;-80
2022/11/05 11:22:17;;;;;;;10.82;6.28;;;10.30;99.90;;;;;;4920226;29;20390;-80
2022/11/05 11:24:52;;;;;;;9.65;6.13;;;10.30;99.90;;;;;;4937739;29;20042;-80
2022/11/05 11:27:26;;;;;;;10.93;6.22;;;10.30;99.90;;;;;;4906121;29;20122;-81
2022/11/05 11:29:58;;;;;;;7.72;5.03;;;10.40;99.90;;;;;;4936542;29;20036;-81
2022/11/05 11:32:33;;;;;;;8.03;5.37;;;10.30;99.90;;;;;;4930993;29;20047;-81
2022/11/05 11:35:00;;;;;;;9.80;5.05;;;10.40;99.90;;;;;;4931019;29;20265;-80
2022/11/05 11:37:31;;;;;;;13.63;5.85;;;10.30;99.90;;;;;;4923601;29;20039;-81
2022/11/05 11:40:04;;;;;;;12.15;6.28;;;10.30;99.90;;;;;;4938409;29;20043;-82
2022/11/05 11:42:33;;;;;;;13.48;7.68;;;10.20;99.90;;;;;;4942087;29;20126;-82
2022/11/05 11:45:06;;;;;;;11.15;5.80;;;10.30;99.90;;;;;;4911046;29;20506;-82
2022/11/05 11:47:32;;;;;;;12.68;6.68;;;10.20;99.90;;;;;;4948171;29;20055;-83
2022/11/05 11:50:00;;;;;;;13.95;7.55;;;10.20;99.90;;;;;;4946353;29;20517;-83
2022/11/05 11:52:33;;;;;;;13.95;6.60;;;10.30;99.90;;;;;;4950159;29;20070;-83
2022/11/05 11:55:11;;;;;;;14.20;8.57;;;10.40;99.90;;;;;;4932800;29;20478;-83
2022/11/05 11:58:09;;;;;;;15.60;7.43;;;10.40;99.90;;;;;;4929032;29;20046;-82
2022/11/05 12:00:48;;;;;;;15.57;9.18;;;10.40;99.90;;;;;;4932548;29;20044;-82
2022/11/05 12:03:32;;;;;;;14.88;8.57;;;10.50;99.90;;;;;;4901924;29;20036;-82
2022/11/05 12:06:16;;;;;;;13.70;7.68;;;10.50;99.90;;;;;;4926663;29;20029;-83
2022/11/05 12:09:10;;;;;;;10.45;5.97;;;10.40;99.90;;;;;;4930394;29;20047;-82
2022/11/05 12:11:46;;;;;;;;;;;10.50;99.90;;;;;;4928398;29;20449;-81
2022/11/05 12:14:40;;;;;;;15.70;8.05;;;10.50;99.90;;;;;;4958622;29;20343;-82
2022/11/05 12:17:30;;;;;;;11.35;6.65;;;10.50;99.90;;;;;;4925529;29;20062;-83
2022/11/05 12:20:22;;;;;;;11.50;6.05;;;10.50;99.90;;;;;;4932015;29;20550;-83
2022/11/05 12:22:58;;;;;;;10.88;6.78;;;10.50;99.90;;;;;;4931994;29;20082;-82
2022/11/05 12:25:30;;;;;;;9.18;5.40;;;10.60;99.90;;;;;;4933351;29;20036;-83
2022/11/05 12:28:13;;;;;;;10.35;5.70;;;10.50;99.90;;;;;;4931989;29;20044;-83
2022/11/05 12:31:08;;;;;;;13.55;7.47;;;10.50;99.90;;;;;;4951894;29;20039;-83
2022/11/05 12:34:02;;;;;;;10.27;5.70;;;10.60;99.90;;;;;;4947837;29;20047;-82
2022/11/05 12:36:54;;;;;;;10.88;6.10;;;10.50;99.90;;;;;;4930998;29;20036;-82
2022/11/05 12:39:35;;;;;;;12.85;4.68;;;10.50;99.90;;;;;;4897271;29;20020;-81
2022/11/05 12:42:10;;;;;;;7.22;4.57;;;10.50;99.90;;;;;;4932083;29;20099;-81
2022/11/05 12:45:00;;;;;;;11.18;5.57;;;10.40;99.90;;;;;;4919467;29;20036;-82
2022/11/05 12:47:29;;;;;;;10.80;5.18;;;10.40;99.90;;;;;;4938159;29;20051;-82
2022/11/05 12:50:12;;;;;;;13.75;7.15;;;10.50;99.90;;;;;;4919090;29;20040;-82
2022/11/05 12:53:24;;;;;;;11.68;5.97;;;10.50;99.90;;;;;;4935586;29;20108;-83
2022/11/05 12:55:51;;;;;;;10.35;4.57;;;10.40;99.90;;;;;;4932707;29;20055;-81
2022/11/05 12:58:38;;;;;;;8.13;4.30;;;10.40;99.90;;;;;;4917441;29;20021;-82
2022/11/05 13:01:20;;;;;;;8.82;5.30;;;10.40;99.90;;;;;;4914914;29;20047;-82
2022/11/05 13:04:00;;;;;;;12.10;6.15;;;10.30;99.90;;;;;;4904181;29;20093;-83
2022/11/05 13:06:40;;;;;;;9.10;4.72;;;10.30;99.90;;;;;;4932857;29;20052;-81
2022/11/05 13:09:14;;;;;;;11.70;6.05;;;10.30;99.90;;;;;;4932512;29;20047;-82
2022/11/05 13:11:53;;;;;;;10.52;6.75;;;10.40;99.90;;;;;;4919322;29;20039;-82
2022/11/05 13:14:36;;;;;;;11.93;6.75;;;10.30;99.90;;;;;;4923949;29;20048;-82
2022/11/05 13:17:33;;;;;;;11.68;6.50;;;10.30;99.90;;;;;;4935920;29;20024;-83
2022/11/05 13:20:14;;;;;;;15.55;8.45;;;10.30;99.90;;;;;;4942531;29;20050;-83
2022/11/05 13:22:45;;;;;;;21.35;12.32;;;10.30;99.90;;;;;;4969234;29;20043;-80
2022/11/05 13:25:28;;;;;;;12.65;7.45;;;10.40;99.90;;;;;;4967052;29;20081;-80
2022/11/05 13:27:58;;;;;;;13.65;7.78;;;10.30;99.90;;;;;;4945397;29;20044;-77
2022/11/05 13:30:29;;;;;;;13.45;7.47;;;10.40;99.90;;;;;;4953266;29;20031;-78
2022/11/05 13:33:03;;;;;;;12.10;7.03;;;10.30;99.90;;;;;;4951875;29;20043;-78
2022/11/05 13:35:39;;;;;;;12.02;6.90;;;10.30;99.90;;;;;;4946460;29;20505;-78
2022/11/05 13:41:48;;;;;;;12.38;6.70;;;10.30;99.90;;;;;;4950045;28;20398;-77
2022/11/05 13:44:20;;;;;;;14.32;7.82;;;10.20;99.90;;;;;;4857829;29;20119;-79
2022/11/05 13:47:12;;;;;;;25.50;12.82;;;10.20;99.90;;;;;;4862498;29;20080;-78
2022/11/05 13:49:58;;;;;;;10.98;6.28;;;10.30;99.90;;;;;;4854665;29;20057;-74
2022/11/05 13:52:29;;;;;;;15.98;8.85;;;10.20;99.90;;;;;;4847047;29;20041;-75
2022/11/05 13:55:09;;;;;;;12.07;6.78;;;10.30;99.90;;;;;;4846485;29;20067;-77
2022/11/05 13:58:13;;;;;;;9.13;5.50;;;10.20;99.90;;;;;;4847555;29;20439;-77
2022/11/05 14:00:47;;;;;;;;;;;10.20;99.90;;;;;;4764715;30;20109;-78
2022/11/05 14:03:18;;;;;;;21.52;9.93;;;10.20;99.90;;;;;;4763573;30;20420;-76
2022/11/05 14:06:16;;;;;;;10.63;6.82;;;10.20;99.90;;;;;;4759319;30;20082;-78
2022/11/05 14:08:45;;;;;;;11.55;6.53;;;10.20;99.90;;;;;;4761407;30;20036;-77
2022/11/05 14:11:21;;;;;;;10.10;5.57;;;10.20;99.90;;;;;;4776148;30;20131;-77
2022/11/05 14:13:51;;;;;;;9.75;6.70;;;10.10;99.90;;;;;;4758300;30;20131;-78
2022/11/05 14:16:20;;;;;;;10.30;5.95;;;10.20;99.90;;;;;;4784127;30;20052;-76
2022/11/05 14:18:53;;;;;;;9.90;6.65;;;10.20;99.90;;;;;;4829868;29;20109;-77
2022/11/05 14:21:25;;;;;;;12.98;7.40;;;10.20;99.90;;;;;;4850166;29;20046;-78
2022/11/05 14:24:12;;;;;;;14.32;8.77;;;10.20;99.90;;;;;;4845321;29;20047;-76
2022/11/05 14:26:39;;;;;;;11.77;7.25;;;10.20;99.90;;;;;;4854815;29;20090;-77
2022/11/05 14:29:21;;;;;;;10.05;5.72;;;10.20;99.90;;;;;;4849956;29;20037;-76
2022/11/05 14:31:50;;;;;;;10.57;6.45;;;10.20;99.90;;;;;;4854146;29;20030;-78
2022/11/05 14:34:20;;;;;;;14.70;8.73;;;10.20;99.90;;;;;;4851698;29;20117;-76
2022/11/05 14:37:08;;;;;;;12.68;7.30;;;10.10;99.90;;;;;;4883195;29;20110;-77
2022/11/05 14:39:34;;;;;;;13.50;7.63;;;10.10;99.90;;;;;;4945018;29;20393;-75
2022/11/05 14:42:03;;;;;;;16.45;9.32;;;10.10;99.90;;;;;;4940531;29;20050;-76
2022/11/05 14:44:32;;;;;;;18.65;9.85;;;10.10;99.90;;;;;;4943229;29;20039;-79
2022/11/05 14:47:03;;;;;;;16.30;8.38;;;10.10;99.90;;;;;;4939618;29;20035;-77
2022/11/05 14:50:07;;;;;;;20.20;10.38;;;10.10;99.90;;;;;;4941608;29;20097;-78
2022/11/05 14:52:34;;;;;;;13.07;7.45;;;10.10;99.90;;;;;;4941258;29;20059;-79
2022/11/05 14:55:01;;;;;;;16.35;8.60;;;10.00;99.90;;;;;;4947282;29;20054;-77
2022/11/05 14:57:42;;;;;;;18.40;10.52;;;10.10;99.90;;;;;;4947004;29;20054;-76
2022/11/05 15:00:45;;;;;;;19.00;9.70;;;10.10;99.90;;;;;;4944487;29;20118;-81
2022/11/05 15:03:31;;;;;;;18.13;11.07;;;10.10;99.90;;;;;;4948942;29;20094;-80
2022/11/05 15:06:26;;;;;;;21.50;13.23;;;10.10;99.90;;;;;;4928436;29;20138;-78
2022/11/05 15:09:17;;;;;;;20.63;11.77;;;10.10;99.90;;;;;;4927123;29;20106;-78
2022/11/05 15:11:55;;;;;;;23.58;15.13;;;10.10;99.90;;;;;;4943222;29;20039;-78
2022/11/05 15:14:29;;;;;;;22.80;12.20;;;10.10;99.90;;;;;;4948038;29;20031;-77
2022/11/05 15:17:19;;;;;;;23.77;15.40;;;10.10;99.90;;;;;;4950292;29;20043;-76
2022/11/05 15:19:46;;;;;;;24.75;14.35;;;10.10;99.90;;;;;;4952132;29;20509;-77
2022/11/05 15:22:38;;;;;;;17.83;11.60;;;10.10;99.90;;;;;;4951826;29;20087;-77
2022/11/05 15:25:13;;;;;;;17.33;10.23;;;10.20;99.90;;;;;;4953499;28;20039;-76
2022/11/05 15:28:02;;;;;;;18.23;12.68;;;10.10;99.90;;;;;;4955632;29;20047;-77
2022/11/05 15:30:28;;;;;;;20.50;12.32;;;10.10;99.90;;;;;;4955750;29;20114;-77
2022/11/05 15:33:06;;;;;;;21.85;11.93;;;10.00;99.90;;;;;;4952708;29;20028;-76
2022/11/05 15:35:39;;;;;;;19.35;11.98;;;10.10;99.90;;;;;;4944992;29;20691;-76
2022/11/05 15:38:24;;;;;;;19.35;10.40;;;10.10;99.90;;;;;;4944387;29;20082;-77
2022/11/05 15:41:00;;;;;;;26.15;15.00;;;10.00;99.90;;;;;;4940331;28;20403;-74
2022/11/05 15:43:26;;;;;;;22.77;15.23;;;10.10;99.90;;;;;;4920322;29;20039;-74
2022/11/05 15:45:58;;;;;;;20.35;12.82;;;10.00;99.90;;;;;;4935698;29;20119;-75
2022/11/05 15:48:24;;;;;;;22.63;12.35;;;10.00;99.90;;;;;;4935622;28;20031;-76
2022/11/05 15:50:51;;;;;;;18.88;10.57;;;10.00;99.90;;;;;;4934168;29;20123;-76
2022/11/05 15:53:28;;;;;;;17.35;11.45;;;10.00;99.90;;;;;;4935142;29;20031;-76
2022/11/05 15:56:00;;;;;;;17.15;10.05;;;10.00;99.90;;;;;;4935424;29;20036;-76
2022/11/05 15:58:26;;;;;;;18.88;11.68;;;10.10;99.90;;;;;;4934620;29;20044;-76
2022/11/05 16:00:52;;;;;;;18.38;10.95;;;10.00;99.90;;;;;;4934936;29;20390;-80
2022/11/05 16:03:28;;;;;;;16.88;11.48;;;10.00;99.90;;;;;;4935180;29;20043;-77
2022/11/05 16:05:54;;;;;;;19.15;12.75;;;10.00;99.90;;;;;;4935220;29;20039;-76
2022/11/05 16:08:26;;;;;;;21.30;12.25;;;10.10;99.90;;;;;;4934813;29;20032;-77
2022/11/05 16:10:56;;;;;;;18.45;11.88;;;10.10;99.90;;;;;;4935410;29;20637;-75
2022/11/05 16:13:38;;;;;;;20.73;13.68;;;10.10;99.90;;;;;;4934669;29;20478;-76
2022/11/05 16:16:24;;;;;;;17.42;10.60;;;10.10;99.90;;;;;;4933720;29;20700;-75
2022/11/05 16:18:50;;;;;;;18.88;11.07;;;10.10;99.90;;;;;;4934208;28;20052;-75
2022/11/05 16:21:18;;;;;;;20.58;12.40;;;10.10;99.90;;;;;;4934338;29;20031;-76
2022/11/05 16:23:47;;;;;;;17.58;10.27;;;10.10;99.90;;;;;;4934996;29;20478;-77
2022/11/05 16:26:31;;;;;;;19.13;12.02;;;10.10;99.90;;;;;;4930463;29;20028;-80
2022/11/05 16:28:59;;;;;;;25.35;14.48;;;10.10;99.90;;;;;;4918201;29;20476;-78
2022/11/05 16:31:28;;;;;;;26.08;14.52;;;10.10;99.90;;;;;;4921023;29;20107;-75
2022/11/05 16:33:55;;;;;;;22.77;14.45;;;10.10;99.90;;;;;;4926013;29;20491;-76
2022/11/05 16:36:23;;;;;;;19.73;12.98;;;10.10;99.90;;;;;;4928886;29;20036;-78
2022/11/05 16:38:49;;;;;;;20.48;13.50;;;10.10;99.90;;;;;;4925151;29;20077;-77
2022/11/05 16:41:21;;;;;;;19.77;12.68;;;10.20;99.90;;;;;;4878998;29;1157333;-77
2022/11/05 16:43:57;;;;;;;21.17;13.40;;;10.10;99.90;;;;;;4947599;29;20398;-75
2022/11/05 16:46:27;;;;;;;20.27;12.38;;;10.20;99.90;;;;;;4947452;29;20074;-79
2022/11/05 16:48:54;;;;;;;27.42;15.48;;;10.20;99.90;;;;;;4948777;29;20032;-76
2022/11/05 16:51:20;;;;;;;24.77;14.27;;;10.20;99.90;;;;;;4945804;29;20042;-78
2022/11/05 16:53:47;;;;;;;22.77;14.85;;;10.20;99.90;;;;;;4946308;29;20042;-76
2022/11/05 16:56:16;;;;;;;22.05;14.23;;;10.20;99.90;;;;;;4932639;29;20747;-76
2022/11/05 16:58:44;;;;;;;19.85;12.93;;;10.20;99.90;;;;;;4931755;29;20078;-79
2022/11/05 17:01:18;;;;;;;21.10;13.63;;;10.20;99.90;;;;;;4950343;29;20080;-77
2022/11/05 17:03:45;;;;;;;19.70;12.45;;;10.30;99.90;;;;;;4937305;29;20039;-78
2022/11/05 17:06:12;;;;;;;24.27;14.63;;;10.30;99.90;;;;;;4954490;29;20039;-78
2022/11/05 17:08:38;;;;;;;26.50;17.02;;;10.30;99.90;;;;;;4941238;29;20066;-79
2022/11/05 17:11:05;;;;;;;21.85;14.43;;;10.20;99.90;;;;;;4953422;29;20031;-79
2022/11/05 17:13:31;;;;;;;23.77;15.98;;;10.30;99.90;;;;;;4953859;29;20043;-78
2022/11/05 17:15:56;;;;;;;20.48;13.05;;;10.30;99.90;;;;;;4941158;29;20043;-79
2022/11/05 17:18:22;;;;;;;19.00;13.45;;;10.30;99.90;;;;;;4934894;29;20145;-79
2022/11/05 17:20:50;;;;;;;20.73;13.02;;;10.30;99.90;;;;;;4945327;29;20761;-78
2022/11/05 17:23:21;;;;;;;19.10;12.93;;;10.40;99.90;;;;;;4954201;29;20371;-77
2022/11/05 17:25:50;;;;;;;17.35;11.13;;;10.30;99.90;;;;;;4951861;29;20043;-79
2022/11/05 17:28:17;;;;;;;21.63;12.32;;;10.30;99.90;;;;;;4953300;29;20534;-77
2022/11/05 17:30:44;;;;;;;20.58;12.70;;;10.20;99.90;;;;;;4947913;29;20047;-77
2022/11/05 17:33:10;;;;;;;18.58;13.48;;;10.30;99.90;;;;;;4953789;29;20126;-77
2022/11/05 17:35:40;;;;;;;21.70;14.82;;;10.30;99.90;;;;;;4953951;29;20035;-77
2022/11/05 17:38:08;;;;;;;24.65;15.23;;;10.30;99.90;;;;;;4953943;29;20126;-77
2022/11/05 17:40:34;;;;;;;23.27;15.20;;;10.30;99.90;;;;;;4947973;28;20616;-80
2022/11/05 17:43:00;;;;;;;20.15;14.52;;;10.20;99.90;;;;;;4953777;29;20071;-79
2022/11/05 17:45:26;;;;;;;22.35;15.73;;;10.20;99.90;;;;;;4953809;29;20023;-76